Time;durP1;ratioP1;P1;durP2;ratioP2;P2;SDS_P1;SDS_P2;PMS_P1;PMS_P2;Temp;Humidity;BMP_temperature;BMP_pressure;BME280_temperature;BME280_humidity;BME280_pressure;Samples;Min_cycle;Max_cycle;Signal;HPM_P1;HPM_P2
2022/04/11 00:02:03;;;;;;;1.63;1.35;;;22.80;35.00;;;;;;4994645;28;20406;-64
2022/04/11 00:04:30;;;;;;;1.30;1.20;;;22.80;35.00;;;;;;4994796;28;20394;-64
2022/04/11 00:06:55;;;;;;;2.10;1.20;;;22.80;35.10;;;;;;4994607;28;20409;-64
2022/04/11 00:09:21;;;;;;;2.60;1.40;;;22.80;35.20;;;;;;4994523;28;20406;-63
2022/04/11 00:11:47;;;;;;;1.48;1.17;;;22.70;35.10;;;;;;4994375;28;20386;-63
2022/04/11 00:14:13;;;;;;;2.17;1.30;;;22.70;35.10;;;;;;4994571;28;20430;-63
2022/04/11 00:16:40;;;;;;;1.58;1.20;;;22.70;35.10;;;;;;4993844;28;20422;-63
2022/04/11 00:19:05;;;;;;;2.22;1.33;;;22.70;35.10;;;;;;4994465;28;20802;-63
2022/04/11 00:21:31;;;;;;;1.70;1.23;;;22.70;35.10;;;;;;4993944;28;20482;-63
2022/04/11 00:23:57;;;;;;;1.90;1.40;;;22.70;35.20;;;;;;4994390;28;20398;-63
2022/04/11 00:26:23;;;;;;;1.40;1.13;;;22.70;35.10;;;;;;4994201;28;20387;-63
2022/04/11 00:28:49;;;;;;;1.43;1.20;;;22.70;35.70;;;;;;4994289;28;20406;-64
2022/04/11 00:31:14;;;;;;;1.30;1.20;;;22.70;35.10;;;;;;4994026;28;20391;-63
2022/04/11 00:33:40;;;;;;;1.60;1.30;;;22.70;35.00;;;;;;4993742;28;20423;-63
2022/04/11 00:36:06;;;;;;;1.40;1.20;;;22.70;35.00;;;;;;4994107;28;20395;-63
2022/04/11 00:38:31;;;;;;;1.63;1.37;;;22.70;34.90;;;;;;4994096;28;20486;-63
2022/04/11 00:40:57;;;;;;;1.40;1.20;;;22.60;34.80;;;;;;4994114;28;20440;-63
2022/04/11 00:43:32;;;;;;;1.53;1.20;;;22.60;34.90;;;;;;4993837;28;20390;-64
2022/04/11 00:45:58;;;;;;;1.90;1.20;;;22.60;34.90;;;;;;4993891;28;20390;-64
2022/04/11 00:48:24;;;;;;;1.65;1.20;;;22.60;34.90;;;;;;4993903;28;20430;-63
2022/04/11 00:50:53;;;;;;;1.50;1.23;;;22.60;34.80;;;;;;4993882;28;20469;-63
2022/04/11 00:53:19;;;;;;;1.90;1.20;;;22.60;34.80;;;;;;4993603;28;20446;-63
2022/04/11 00:55:45;;;;;;;1.45;1.10;;;22.60;34.80;;;;;;4993711;28;20468;-63
2022/04/11 00:58:11;;;;;;;2.03;1.30;;;22.60;34.80;;;;;;4993684;28;20751;-64
2022/04/11 01:00:36;;;;;;;2.00;1.30;;;22.60;34.80;;;;;;4993814;28;20521;-64
2022/04/11 01:03:02;;;;;;;1.43;1.17;;;22.60;34.90;;;;;;4993547;28;20755;-63
2022/04/11 01:05:28;;;;;;;1.20;1.10;;;22.60;34.80;;;;;;4993188;28;20478;-63
2022/04/11 01:08:03;;;;;;;2.27;1.20;;;22.50;34.80;;;;;;4993493;28;20429;-63
2022/04/11 01:10:28;;;;;;;1.75;1.20;;;22.50;34.80;;;;;;4993570;28;20390;-63
2022/04/11 01:12:54;;;;;;;2.40;1.20;;;22.60;34.70;;;;;;4993476;28;20401;-63
2022/04/11 01:15:20;;;;;;;1.70;1.20;;;22.50;34.60;;;;;;4993210;28;20469;-63
2022/04/11 01:17:45;;;;;;;1.40;1.20;;;22.50;34.70;;;;;;4993220;28;20407;-63
2022/04/11 01:20:13;;;;;;;1.90;1.40;;;22.50;34.80;;;;;;4993263;28;20882;-63
2022/04/11 01:22:40;;;;;;;1.60;1.30;;;22.50;34.70;;;;;;4993340;28;20478;-63
2022/04/11 01:25:06;;;;;;;1.50;1.20;;;22.50;34.70;;;;;;4993230;28;20982;-63
2022/04/11 01:27:32;;;;;;;1.38;1.20;;;22.50;34.60;;;;;;4992708;28;20418;-63
2022/04/11 01:29:58;;;;;;;1.60;1.30;;;22.50;34.60;;;;;;4993100;28;20449;-63
2022/04/11 01:32:24;;;;;;;1.83;1.30;;;22.50;34.50;;;;;;4992965;28;20414;-63
2022/04/11 01:34:50;;;;;;;1.98;1.20;;;22.50;34.50;;;;;;4993101;28;20391;-63
2022/04/11 01:37:16;;;;;;;2.60;1.27;;;22.50;34.40;;;;;;4992968;28;20397;-63
2022/04/11 01:39:41;;;;;;;1.70;1.30;;;22.50;34.40;;;;;;4992558;28;20387;-64
2022/04/11 01:42:07;;;;;;;1.45;1.35;;;22.40;34.40;;;;;;4992901;28;20409;-63
2022/04/11 01:44:33;;;;;;;1.97;1.27;;;22.50;34.40;;;;;;4992519;28;20732;-63
2022/04/11 01:46:58;;;;;;;1.33;1.20;;;22.40;34.40;;;;;;4991427;28;20426;-63
2022/04/11 01:49:24;;;;;;;1.63;1.03;;;22.40;34.40;;;;;;4992652;28;20391;-63
2022/04/11 01:51:51;;;;;;;1.35;1.17;;;22.40;34.50;;;;;;4992564;28;20394;-63
2022/04/11 01:54:17;;;;;;;1.35;1.20;;;22.40;34.60;;;;;;4992723;28;20390;-63
2022/04/11 01:56:43;;;;;;;1.50;1.00;;;22.40;34.50;;;;;;4992729;28;20386;-63
2022/04/11 01:59:09;;;;;;;1.85;1.15;;;22.40;34.50;;;;;;4992559;28;20398;-63
2022/04/11 02:01:34;;;;;;;1.47;1.10;;;22.40;34.40;;;;;;4992200;28;20399;-63
2022/04/11 02:04:00;;;;;;;1.98;1.20;;;22.40;34.40;;;;;;4992506;28;20399;-63
2022/04/11 02:06:25;;;;;;;1.47;1.00;;;22.40;34.40;;;;;;4992518;28;20942;-64
2022/04/11 02:08:51;;;;;;;2.03;1.10;;;22.40;34.40;;;;;;4992545;28;20489;-63
2022/04/11 02:11:17;;;;;;;2.10;1.00;;;22.40;34.40;;;;;;4992440;28;20850;-63
2022/04/11 02:13:42;;;;;;;1.38;0.93;;;22.40;34.30;;;;;;4991967;28;20395;-63
2022/04/11 02:16:08;;;;;;;1.50;1.10;;;22.40;34.40;;;;;;4992318;28;20395;-63
2022/04/11 02:18:34;;;;;;;1.40;1.02;;;22.40;34.30;;;;;;4992413;28;20394;-63
2022/04/11 02:20:59;;;;;;;1.40;1.13;;;22.40;34.30;;;;;;4992359;28;20446;-64
2022/04/11 02:23:25;;;;;;;1.40;1.10;;;22.40;34.30;;;;;;4992054;28;20402;-63
2022/04/11 02:25:51;;;;;;;1.67;1.33;;;22.30;34.30;;;;;;4992168;28;20836;-64
2022/04/11 02:28:16;;;;;;;1.38;1.10;;;22.40;34.30;;;;;;4992205;28;20421;-64
2022/04/11 02:30:42;;;;;;;1.50;0.90;;;22.40;34.30;;;;;;4992249;28;20422;-64
2022/04/11 02:33:08;;;;;;;1.20;1.10;;;22.30;34.30;;;;;;4991951;28;20410;-64
2022/04/11 02:35:33;;;;;;;1.60;1.10;;;22.30;34.30;;;;;;4991801;28;20382;-63
2022/04/11 02:37:59;;;;;;;2.00;1.10;;;22.30;34.30;;;;;;4992083;28;20390;-64
2022/04/11 02:40:25;;;;;;;1.30;1.00;;;22.30;34.30;;;;;;4992253;28;20387;-63
2022/04/11 02:42:51;;;;;;;1.73;0.90;;;22.30;34.30;;;;;;4992024;28;20395;-63
2022/04/11 02:45:17;;;;;;;1.30;1.13;;;22.30;34.30;;;;;;4992097;28;20887;-63
2022/04/11 02:47:44;;;;;;;1.52;1.17;;;22.30;34.30;;;;;;4991398;28;20426;-63
2022/04/11 02:50:10;;;;;;;1.50;1.23;;;22.30;34.20;;;;;;4992051;28;20477;-63
2022/04/11 02:52:36;;;;;;;1.60;1.20;;;22.30;34.20;;;;;;4992078;28;20390;-63
2022/04/11 02:55:02;;;;;;;1.45;1.05;;;22.30;34.20;;;;;;4991940;28;20449;-63
2022/04/11 02:57:29;;;;;;;1.40;1.30;;;22.30;34.20;;;;;;4993587;28;20401;-63
2022/04/11 02:59:55;;;;;;;2.30;1.30;;;22.30;34.20;;;;;;4994531;28;20398;-63
2022/04/11 03:02:20;;;;;;;2.05;1.27;;;22.30;34.20;;;;;;4995911;28;20433;-63
2022/04/11 03:04:46;;;;;;;2.10;1.37;;;22.20;34.10;;;;;;4995899;28;20430;-64
2022/04/11 03:07:12;;;;;;;5.00;1.40;;;22.20;34.20;;;;;;4995642;28;20449;-64
2022/04/11 03:09:38;;;;;;;5.95;1.50;;;22.30;34.80;;;;;;4995150;28;20401;-64
2022/04/11 03:12:05;;;;;;;2.92;1.60;;;22.30;34.90;;;;;;4995596;28;20422;-64
2022/04/11 03:14:30;;;;;;;4.35;1.80;;;22.40;35.80;;;;;;4995727;28;20392;-64
2022/04/11 03:16:56;;;;;;;6.30;2.40;;;22.50;36.70;;;;;;4995648;28;20398;-64
2022/04/11 03:19:22;;;;;;;4.97;2.13;;;22.50;36.30;;;;;;4995654;28;20398;-64
2022/04/11 03:21:48;;;;;;;5.30;1.75;;;22.40;36.30;;;;;;4995267;28;20482;-64
2022/04/11 03:24:13;;;;;;;5.68;1.80;;;22.40;36.80;;;;;;4995360;28;20513;-64
2022/04/11 03:26:39;;;;;;;2.30;1.60;;;22.50;37.70;;;;;;4995420;28;20413;-64
2022/04/11 03:29:04;;;;;;;4.57;1.70;;;22.40;37.30;;;;;;4995235;28;20406;-64
2022/04/11 03:31:30;;;;;;;4.20;1.60;;;22.50;37.50;;;;;;4989179;28;20400;-63
2022/04/11 03:33:56;;;;;;;4.95;1.60;;;22.50;37.90;;;;;;4983712;28;20447;-64
2022/04/11 03:36:22;;;;;;;2.37;1.50;;;22.60;37.80;;;;;;4985422;28;20387;-64
2022/04/11 03:38:48;;;;;;;2.30;1.30;;;22.60;37.70;;;;;;4985456;28;20543;-64
2022/04/11 03:41:14;;;;;;;3.03;1.40;;;22.60;36.70;;;;;;4983976;28;20392;-64
2022/04/11 03:43:40;;;;;;;4.75;1.35;;;22.70;36.80;;;;;;4985036;28;20402;-63
2022/04/11 03:46:05;;;;;;;3.47;1.30;;;22.70;36.80;;;;;;4984985;28;20395;-64
2022/04/11 03:48:31;;;;;;;3.00;1.50;;;22.70;37.00;;;;;;4983910;28;20435;-63
2022/04/11 03:50:56;;;;;;;3.23;1.33;;;22.70;36.90;;;;;;4986641;28;20392;-63
2022/04/11 03:53:22;;;;;;;3.40;1.47;;;22.70;36.50;;;;;;4983443;28;20394;-63
2022/04/11 03:55:48;;;;;;;3.05;1.30;;;22.70;36.80;;;;;;4983241;28;20399;-63
2022/04/11 03:58:13;;;;;;;2.30;1.20;;;22.70;36.90;;;;;;4989072;28;20391;-64
2022/04/11 04:00:39;;;;;;;6.90;1.20;;;22.60;36.80;;;;;;4995120;28;20394;-64
2022/04/11 04:03:06;;;;;;;5.50;1.40;;;22.60;36.80;;;;;;4993320;28;20394;-64
2022/04/11 04:05:32;;;;;;;3.27;1.20;;;22.50;35.60;;;;;;4985091;28;20500;-64
2022/04/11 04:07:58;;;;;;;3.38;1.40;;;22.40;35.30;;;;;;4982784;28;20507;-63
2022/04/11 04:10:27;;;;;;;2.05;1.30;;;22.40;35.60;;;;;;4985542;28;20383;-63
2022/04/11 04:12:59;;;;;;;3.28;1.33;;;22.30;35.60;;;;;;4984997;28;20403;-64
2022/04/11 04:15:25;;;;;;;2.45;1.10;;;22.20;36.00;;;;;;4983936;28;20389;-63
2022/04/11 04:17:54;;;;;;;3.40;1.40;;;22.20;36.20;;;;;;4984063;28;20452;-63
2022/04/11 04:20:20;;;;;;;3.90;1.40;;;22.20;36.20;;;;;;4994175;28;20402;-63
2022/04/11 04:22:46;;;;;;;4.05;1.30;;;22.20;36.20;;;;;;4994622;28;20391;-64
2022/04/11 04:25:12;;;;;;;6.47;1.52;;;22.20;36.40;;;;;;4985601;28;20403;-64
2022/04/11 04:27:37;;;;;;;8.98;1.70;;;22.30;36.20;;;;;;4982874;28;20445;-64
2022/04/11 04:30:05;;;;;;;6.13;1.63;;;22.30;36.60;;;;;;4985290;28;20544;-64
2022/04/11 04:32:31;;;;;;;5.50;1.30;;;22.40;36.40;;;;;;4983793;28;20424;-64
2022/04/11 04:34:57;;;;;;;5.18;1.40;;;22.40;36.00;;;;;;4983334;28;20395;-64
2022/04/11 04:37:22;;;;;;;7.67;1.43;;;22.40;36.00;;;;;;4984968;28;20394;-64
2022/04/11 04:39:48;;;;;;;3.85;1.40;;;22.40;35.90;;;;;;4983077;28;20484;-64
2022/04/11 04:42:23;;;;;;;4.77;1.40;;;22.40;35.90;;;;;;4985743;28;20413;-64
2022/04/11 04:44:49;;;;;;;3.70;1.30;;;22.40;35.70;;;;;;4982244;28;20396;-64
2022/04/11 04:47:18;;;;;;;3.35;1.20;;;22.50;35.60;;;;;;4974860;28;20419;-64
2022/04/11 04:49:44;;;;;;;6.03;1.55;;;22.40;35.50;;;;;;4989177;28;20938;-64
2022/04/11 04:52:10;;;;;;;3.88;1.42;;;22.40;35.30;;;;;;4992464;28;20964;-64
2022/04/11 04:54:36;;;;;;;3.40;1.35;;;22.40;35.30;;;;;;4993930;28;20882;-64
2022/04/11 04:57:02;;;;;;;6.23;1.57;;;22.40;35.90;;;;;;4993829;28;20386;-64
2022/04/11 04:59:28;;;;;;;3.10;1.40;;;22.30;35.80;;;;;;4993336;28;20472;-64
2022/04/11 05:01:54;;;;;;;2.75;1.20;;;22.40;35.80;;;;;;4993201;28;20477;-64
2022/04/11 05:04:20;;;;;;;6.47;1.40;;;22.30;35.30;;;;;;4992441;28;20410;-64
2022/04/11 05:06:45;;;;;;;5.43;1.33;;;22.40;35.10;;;;;;4993369;28;20448;-64
2022/04/11 05:09:11;;;;;;;5.13;1.38;;;22.40;35.20;;;;;;4992340;28;20410;-64
2022/04/11 05:11:37;;;;;;;5.07;1.40;;;22.40;35.00;;;;;;4993348;28;20946;-64
2022/04/11 05:14:03;;;;;;;4.97;1.50;;;22.40;34.70;;;;;;4993339;28;20911;-64
2022/04/11 05:16:28;;;;;;;5.15;1.60;;;22.40;34.70;;;;;;4993616;28;20387;-64
2022/04/11 05:18:54;;;;;;;6.68;1.50;;;22.30;34.70;;;;;;4993132;28;20402;-64
2022/04/11 05:21:20;;;;;;;13.67;2.50;;;22.30;34.50;;;;;;4992756;28;20390;-65
2022/04/11 05:23:46;;;;;;;7.93;2.00;;;22.30;34.90;;;;;;5007844;28;20403;-64
2022/04/11 05:26:12;;;;;;;9.88;2.15;;;22.40;35.40;;;;;;4993136;28;20443;-65
2022/04/11 05:28:37;;;;;;;12.30;2.53;;;22.40;35.60;;;;;;4993107;28;20888;-65
2022/04/11 05:31:03;;;;;;;7.63;1.92;;;22.50;35.80;;;;;;4993107;28;20401;-65
2022/04/11 05:33:29;;;;;;;8.50;2.22;;;22.50;35.60;;;;;;4990343;28;20545;-65
2022/04/11 05:35:58;;;;;;;5.32;2.08;;;22.50;35.90;;;;;;4991496;28;20411;-65
2022/04/11 05:38:24;;;;;;;5.35;2.10;;;22.60;36.20;;;;;;4992905;28;20870;-65
2022/04/11 05:40:50;;;;;;;5.83;1.93;;;22.50;35.90;;;;;;4990229;28;20445;-65
2022/04/11 05:43:16;;;;;;;4.47;1.83;;;22.50;36.30;;;;;;4984079;28;20399;-64
2022/04/11 05:45:42;;;;;;;5.30;1.88;;;22.50;35.40;;;;;;4977235;28;20472;-65
2022/04/11 05:48:09;;;;;;;3.47;1.90;;;22.60;35.70;;;;;;4973073;28;20419;-64
2022/04/11 05:50:34;;;;;;;3.03;1.55;;;22.50;35.50;;;;;;4985531;28;20410;-64
2022/04/11 05:53:01;;;;;;;3.77;1.67;;;22.50;35.00;;;;;;4988869;28;20449;-65
2022/04/11 05:55:30;;;;;;;3.67;1.55;;;22.50;35.00;;;;;;4980871;28;20759;-65
2022/04/11 05:57:56;;;;;;;2.80;1.60;;;22.60;35.00;;;;;;4982813;28;20470;-65
2022/04/11 06:00:22;;;;;;;2.70;1.47;;;22.50;34.70;;;;;;4975833;28;20867;-65
2022/04/11 06:02:48;;;;;;;4.03;1.48;;;22.60;34.60;;;;;;4981844;28;20408;-64
2022/04/11 06:05:14;;;;;;;3.55;1.50;;;22.60;34.50;;;;;;4979637;28;20412;-65
2022/04/11 06:07:41;;;;;;;1.92;1.40;;;22.60;34.30;;;;;;4972998;28;20424;-64
2022/04/11 06:10:08;;;;;;;2.95;1.50;;;22.60;34.40;;;;;;4972905;28;20392;-65
2022/04/11 06:12:34;;;;;;;3.10;1.60;;;22.50;34.20;;;;;;4973604;28;20880;-65
2022/04/11 06:15:00;;;;;;;2.70;1.50;;;22.50;34.00;;;;;;4981850;28;20491;-65
2022/04/11 06:17:26;;;;;;;2.20;1.50;;;22.60;34.00;;;;;;4972230;28;20491;-65
2022/04/11 06:19:55;;;;;;;2.90;1.42;;;22.60;33.90;;;;;;4972196;28;20923;-65
2022/04/11 06:22:22;;;;;;;2.42;1.40;;;22.60;33.90;;;;;;4972747;28;20479;-65
2022/04/11 06:24:48;;;;;;;2.55;1.50;;;22.60;33.80;;;;;;4972806;28;20401;-64
2022/04/11 06:27:15;;;;;;;3.95;1.58;;;22.60;33.60;;;;;;4973055;28;20466;-64
2022/04/11 06:29:41;;;;;;;4.53;1.63;;;22.60;34.30;;;;;;4972913;28;20401;-64
2022/04/11 06:32:06;;;;;;;3.57;1.50;;;22.60;33.70;;;;;;4972394;28;20535;-64
2022/04/11 06:34:35;;;;;;;3.65;1.50;;;22.60;34.20;;;;;;4988579;28;20395;-64
2022/04/11 06:37:01;;;;;;;8.88;1.75;;;22.60;34.10;;;;;;4991891;28;20397;-64
2022/04/11 06:39:27;;;;;;;7.78;1.50;;;22.60;34.30;;;;;;4991874;28;20406;-64
2022/04/11 06:41:53;;;;;;;4.00;1.20;;;22.70;34.30;;;;;;4991348;28;20394;-64
2022/04/11 06:44:19;;;;;;;3.60;1.35;;;22.60;34.20;;;;;;4990521;28;20453;-64
2022/04/11 06:46:45;;;;;;;4.30;1.40;;;22.60;34.10;;;;;;4991742;28;20418;-65
2022/04/11 06:49:11;;;;;;;3.80;1.20;;;22.60;34.00;;;;;;5006923;28;20540;-64
2022/04/11 06:51:37;;;;;;;4.27;1.47;;;22.60;34.30;;;;;;4991649;28;20485;-64
2022/04/11 06:54:02;;;;;;;3.95;1.30;;;22.60;34.40;;;;;;4991476;28;20859;-64
2022/04/11 06:56:28;;;;;;;4.10;1.30;;;22.60;34.50;;;;;;4991603;28;20401;-64
2022/04/11 06:58:54;;;;;;;2.60;1.20;;;22.60;34.60;;;;;;4991533;28;20529;-64
2022/04/11 07:01:20;;;;;;;4.33;1.37;;;22.50;34.50;;;;;;4994914;28;20443;-64
2022/04/11 07:03:46;;;;;;;2.85;1.35;;;22.50;34.60;;;;;;4987320;28;20416;-64
2022/04/11 07:06:11;;;;;;;1.85;1.00;;;22.60;34.80;;;;;;4986308;28;20882;-64
2022/04/11 07:08:37;;;;;;;3.43;1.20;;;22.50;34.70;;;;;;4987193;28;20935;-64
2022/04/11 07:11:04;;;;;;;3.95;1.20;;;22.50;34.60;;;;;;4984289;28;20952;-64
2022/04/11 07:13:30;;;;;;;2.63;1.20;;;22.50;34.70;;;;;;4973772;28;20401;-64
2022/04/11 07:15:56;;;;;;;2.40;1.10;;;22.50;34.60;;;;;;4971903;28;20446;-64
2022/04/11 07:18:27;;;;;;;4.22;1.30;;;22.50;34.70;;;;;;4971971;28;20462;-64
2022/04/11 07:20:53;;;;;;;2.22;1.10;;;22.60;34.60;;;;;;4980829;28;20406;-65
2022/04/11 07:23:18;;;;;;;3.08;1.20;;;22.50;34.60;;;;;;4986266;28;20392;-65
2022/04/11 07:25:44;;;;;;;3.63;1.20;;;22.50;34.60;;;;;;4986166;28;20412;-74
2022/04/11 07:28:10;;;;;;;2.80;1.20;;;22.60;34.60;;;;;;4989144;28;20447;-66
2022/04/11 07:30:36;;;;;;;1.65;1.00;;;22.60;34.50;;;;;;4984849;28;20395;-64
2022/04/11 07:33:02;;;;;;;3.15;1.30;;;22.60;34.50;;;;;;5201662;23;21175;-65
2022/04/11 07:35:28;;;;;;;2.83;1.17;;;22.60;34.50;;;;;;5040615;28;20805;-65
2022/04/11 07:37:54;;;;;;;2.03;1.00;;;22.50;34.40;;;;;;5025427;28;20872;-64
2022/04/11 07:42:51;;;;;;;2.00;1.23;;;22.60;34.30;;;;;;4980741;28;20440;-65
2022/04/11 07:45:17;;;;;;;1.67;1.10;;;22.60;34.30;;;;;;4958357;28;20408;-65
2022/04/11 07:47:43;;;;;;;2.78;1.20;;;22.60;34.20;;;;;;4958122;28;20420;-65
2022/04/11 07:50:09;;;;;;;2.10;1.07;;;22.60;34.10;;;;;;4957589;28;20526;-65
2022/04/11 07:52:39;;;;;;;1.60;1.10;;;22.70;34.10;;;;;;4957674;28;20406;-64
2022/04/11 07:55:06;;;;;;;1.80;1.10;;;22.70;34.00;;;;;;4966323;28;20482;-65
2022/04/11 07:57:32;;;;;;;2.55;1.10;;;22.60;33.80;;;;;;4962794;28;20743;-64
2022/04/11 07:59:57;;;;;;;1.53;1.07;;;22.70;34.00;;;;;;4955622;29;20477;-64
2022/04/11 08:02:27;;;;;;;1.75;1.10;;;22.60;33.90;;;;;;4938362;29;20500;-65
2022/04/11 08:04:53;;;;;;;1.55;1.02;;;22.60;33.80;;;;;;4955717;29;20393;-64
2022/04/11 08:07:19;;;;;;;1.88;1.13;;;22.70;32.10;;;;;;4938405;29;20426;-64
2022/04/11 08:09:45;;;;;;;2.20;1.20;;;22.80;32.10;;;;;;4956732;28;20397;-65
2022/04/11 08:12:11;;;;;;;3.88;1.00;;;22.90;32.80;;;;;;4971335;28;20447;-65
2022/04/11 08:14:37;;;;;;;1.60;0.98;;;22.90;33.60;;;;;;4982801;28;20795;-65
2022/04/11 08:17:03;;;;;;;2.57;1.03;;;22.90;33.80;;;;;;4972199;28;20396;-65
2022/04/11 08:46:20;;;;;;;1.80;1.00;;;23.00;32.50;;;;;;5579674;23;20438;-64
2022/04/11 08:48:46;;;;;;;1.90;0.90;;;23.00;32.50;;;;;;5051969;28;20471;-65
2022/04/11 08:51:12;;;;;;;1.50;0.90;;;23.10;32.70;;;;;;5054470;28;20856;-64
2022/04/11 08:53:38;;;;;;;2.50;0.90;;;23.10;32.60;;;;;;5033365;28;20400;-65
2022/04/11 08:56:04;;;;;;;1.88;0.90;;;23.10;32.30;;;;;;5054489;28;20480;-65
2022/04/11 08:58:29;;;;;;;1.98;0.85;;;23.10;32.00;;;;;;5052942;28;20404;-64
2022/04/11 09:00:55;;;;;;;2.00;1.10;;;23.10;32.30;;;;;;5050241;28;20390;-64
2022/04/11 09:03:21;;;;;;;2.63;2.00;;;23.10;32.20;;;;;;5054724;28;20737;-65
2022/04/11 09:06:03;;;;;;;1.60;1.20;;;23.00;33.70;;;;;;5052792;28;20398;-65
2022/04/11 09:08:39;;;;;;;1.90;1.10;;;23.00;33.70;;;;;;5049121;28;20556;-65
2022/04/11 09:11:05;;;;;;;2.20;1.20;;;23.00;33.60;;;;;;5052661;28;20407;-65
2022/04/11 09:13:50;;;;;;;1.90;1.10;;;22.90;34.10;;;;;;5053191;28;20392;-66
2022/04/11 09:16:16;;;;;;;2.22;1.00;;;23.00;33.90;;;;;;5048803;28;20480;-66
2022/04/11 09:19:00;;;;;;;2.50;1.20;;;23.00;33.40;;;;;;5052601;28;20390;-66
2022/04/11 09:21:42;;;;;;;2.35;1.08;;;23.00;33.90;;;;;;5051486;28;20775;-66
2022/04/11 09:24:22;;;;;;;1.95;1.10;;;23.10;34.30;;;;;;5050340;28;20401;-65
2022/04/11 09:26:50;;;;;;;1.40;1.00;;;23.10;34.10;;;;;;5052873;28;20423;-65
2022/04/11 09:29:15;;;;;;;1.80;1.00;;;23.20;33.90;;;;;;5052559;28;20443;-65
2022/04/11 09:31:42;;;;;;;1.40;0.80;;;23.20;34.10;;;;;;5050824;28;20394;-65
2022/04/11 09:34:27;;;;;;;2.03;0.90;;;23.30;34.20;;;;;;5033145;28;20396;-65
2022/04/11 09:37:02;;;;;;;1.88;0.98;;;23.30;34.60;;;;;;5052655;28;20401;-65
2022/04/11 09:39:33;;;;;;;1.90;1.00;;;23.30;34.20;;;;;;5051167;28;20399;-65
2022/04/11 09:41:59;;;;;;;1.90;1.00;;;23.30;34.00;;;;;;5049676;28;20432;-65
2022/04/11 09:44:28;;;;;;;1.83;0.90;;;23.30;33.70;;;;;;5052060;28;20507;-65
2022/04/11 09:46:59;;;;;;;1.27;0.90;;;23.30;33.50;;;;;;5051995;28;20413;-65
2022/04/11 09:49:25;;;;;;;2.58;0.98;;;23.30;33.00;;;;;;5050797;28;20388;-65
2022/04/11 09:52:06;;;;;;;1.50;1.00;;;23.30;33.30;;;;;;5051879;28;20787;-65
2022/04/11 09:54:32;;;;;;;1.60;1.00;;;23.30;33.10;;;;;;5051791;28;20427;-65
2022/04/11 09:57:00;;;;;;;1.85;1.00;;;23.40;32.90;;;;;;5055015;28;20480;-65
2022/04/11 09:59:26;;;;;;;2.30;0.90;;;23.40;32.90;;;;;;5035270;28;20883;-65
2022/04/11 10:01:53;;;;;;;1.50;1.00;;;23.40;32.80;;;;;;5057177;28;20406;-66
2022/04/11 10:04:19;;;;;;;2.45;1.00;;;23.40;33.10;;;;;;5051677;28;20389;-65
2022/04/11 10:06:46;;;;;;;2.40;0.90;;;23.40;33.00;;;;;;5051432;28;20796;-65
2022/04/11 10:09:16;;;;;;;3.08;1.10;;;23.40;32.90;;;;;;5050496;28;20509;-65
2022/04/11 10:11:43;;;;;;;5.50;1.15;;;23.40;33.00;;;;;;5052046;28;20468;-65
2022/04/11 10:14:13;;;;;;;5.20;1.10;;;23.40;33.00;;;;;;5054181;28;20398;-65
2022/04/11 10:16:43;;;;;;;3.72;1.10;;;23.40;32.90;;;;;;5049353;28;20397;-66
2022/04/11 10:19:13;;;;;;;5.45;1.10;;;23.50;32.70;;;;;;5053251;28;20390;-65
2022/04/11 10:21:41;;;;;;;3.22;1.10;;;23.50;32.70;;;;;;5049536;28;20873;-65
2022/04/11 10:24:23;;;;;;;3.75;1.05;;;23.50;32.60;;;;;;5051881;28;20424;-66
2022/04/11 10:26:55;;;;;;;3.20;1.00;;;23.50;32.50;;;;;;5050052;28;20440;-65
2022/04/11 10:29:34;;;;;;;3.30;1.10;;;23.50;32.40;;;;;;5056270;28;20755;-65
2022/04/11 10:32:14;;;;;;;2.10;1.00;;;23.50;32.40;;;;;;5048763;28;20397;-65
2022/04/11 10:35:02;;;;;;;2.75;0.95;;;23.50;32.30;;;;;;5049238;28;20897;-65
2022/04/11 10:37:40;;;;;;;4.38;1.10;;;23.60;32.30;;;;;;5048304;28;20381;-65
2022/04/11 10:40:15;;;;;;;2.73;1.10;;;23.60;32.20;;;;;;5049534;28;20394;-65
2022/04/11 10:43:01;;;;;;;2.03;0.90;;;23.60;32.20;;;;;;5046040;28;20496;-65
2022/04/11 10:45:57;;;;;;;2.65;0.85;;;23.60;32.10;;;;;;5051921;28;20478;-65
2022/04/11 10:48:54;;;;;;;1.40;0.80;;;23.60;32.10;;;;;;5049255;28;20444;-65
2022/04/11 10:51:20;;;;;;;2.22;0.80;;;23.60;32.20;;;;;;5048397;28;20482;-65
2022/04/11 10:54:22;;;;;;;1.50;0.80;;;23.60;32.20;;;;;;5034264;28;20508;-65
2022/04/11 10:56:52;;;;;;;1.90;0.90;;;23.60;31.90;;;;;;4956783;28;20392;-65
2022/04/11 10:59:28;;;;;;;2.38;0.90;;;23.60;31.90;;;;;;5033814;28;20449;-65
2022/04/11 11:01:58;;;;;;;2.00;0.90;;;23.60;31.80;;;;;;5051203;28;20889;-65
2022/04/11 11:04:27;;;;;;;2.20;0.80;;;23.60;32.00;;;;;;5051636;28;20444;-65
2022/04/11 11:07:30;;;;;;;1.52;0.90;;;23.60;31.90;;;;;;5051395;28;20774;-65
2022/04/11 11:09:59;;;;;;;1.83;0.90;;;23.60;31.80;;;;;;4949123;28;20802;-65
2022/04/11 11:12:26;;;;;;;1.30;0.85;;;23.60;31.70;;;;;;5035501;28;20494;-66
2022/04/11 11:14:52;;;;;;;1.65;0.80;;;23.60;31.90;;;;;;5049282;28;20394;-66
2022/04/11 11:17:17;;;;;;;2.70;0.80;;;23.60;32.10;;;;;;5049376;28;20396;-66
2022/04/11 11:20:16;;;;;;;1.83;0.80;;;23.60;32.20;;;;;;5034039;28;20406;-66
2022/04/11 11:23:13;;;;;;;3.10;1.20;;;23.60;32.10;;;;;;5016448;28;20496;-66
2022/04/11 11:25:39;;;;;;;2.22;0.80;;;23.70;32.20;;;;;;5053067;28;20460;-65
2022/04/11 11:28:05;;;;;;;1.95;0.80;;;23.70;32.10;;;;;;5054562;28;20500;-66
2022/04/11 11:30:32;;;;;;;1.60;0.80;;;23.70;32.00;;;;;;5054984;28;20385;-66
2022/04/11 11:33:01;;;;;;;1.27;0.80;;;23.70;31.90;;;;;;5054915;28;20484;-66
2022/04/11 11:35:28;;;;;;;1.30;0.80;;;23.70;31.80;;;;;;5038576;28;20391;-66
2022/04/11 11:38:04;;;;;;;1.63;0.82;;;23.80;31.80;;;;;;5054696;28;20377;-66
2022/04/11 11:40:30;;;;;;;1.70;0.82;;;23.80;31.80;;;;;;5055044;28;20885;-65
2022/04/11 11:42:56;;;;;;;1.80;0.90;;;23.80;31.80;;;;;;5053381;28;20382;-66
2022/04/11 11:45:28;;;;;;;1.20;0.80;;;23.80;31.80;;;;;;5052587;28;20392;-65
2022/04/11 11:47:54;;;;;;;1.17;0.75;;;23.80;31.80;;;;;;5054715;28;20412;-65
2022/04/11 11:50:20;;;;;;;1.40;1.10;;;23.80;31.70;;;;;;5054467;28;20386;-66
2022/04/11 11:52:57;;;;;;;1.20;0.90;;;23.80;31.70;;;;;;5054646;28;20397;-66
2022/04/11 11:55:23;;;;;;;1.80;0.90;;;23.80;31.60;;;;;;5052491;28;20387;-66
2022/04/11 11:58:04;;;;;;;1.30;0.85;;;23.80;31.70;;;;;;5034237;28;20389;-66
2022/04/11 12:00:35;;;;;;;1.37;0.90;;;23.80;31.60;;;;;;5053800;28;20400;-66
2022/04/11 12:05:55;;;;;;;1.65;0.90;;;23.80;31.70;;;;;;5054524;28;20749;-66
2022/04/11 12:08:21;;;;;;;1.30;0.80;;;23.70;31.60;;;;;;5051777;28;20517;-66
2022/04/11 12:10:47;;;;;;;1.45;0.80;;;23.80;31.60;;;;;;5054193;28;20477;-67
2022/04/11 12:13:29;;;;;;;1.80;0.80;;;23.80;31.60;;;;;;5054095;28;20405;-66
2022/04/11 12:16:09;;;;;;;1.30;0.80;;;23.80;31.60;;;;;;5034158;28;20425;-66
2022/04/11 12:18:51;;;;;;;1.60;0.88;;;23.80;31.50;;;;;;5054119;28;20400;-66
2022/04/11 12:21:18;;;;;;;1.48;0.80;;;23.80;31.50;;;;;;5058507;28;20392;-66
2022/04/11 12:23:48;;;;;;;1.23;0.85;;;23.80;31.50;;;;;;5054070;28;20382;-66
2022/04/11 12:26:37;;;;;;;1.30;0.93;;;23.80;31.50;;;;;;5056322;28;20779;-66
2022/04/11 12:29:17;;;;;;;1.08;0.70;;;23.80;31.40;;;;;;5052639;28;20488;-66
2022/04/11 12:32:01;;;;;;;1.38;0.85;;;23.80;31.30;;;;;;5052279;28;20414;-66
2022/04/11 12:34:34;;;;;;;1.27;0.80;;;23.80;31.90;;;;;;5055404;28;20386;-66
2022/04/11 12:37:02;;;;;;;1.10;0.77;;;23.80;31.30;;;;;;5057918;28;20429;-66
2022/04/11 12:39:29;;;;;;;1.10;0.90;;;23.80;31.30;;;;;;5054892;28;20403;-66
2022/04/11 12:41:55;;;;;;;1.13;0.90;;;23.80;31.20;;;;;;5033844;28;20397;-66
2022/04/11 12:44:32;;;;;;;1.45;0.80;;;23.80;31.10;;;;;;5053308;28;20443;-66
2022/04/11 12:46:58;;;;;;;1.40;0.85;;;23.80;31.10;;;;;;5051207;28;20834;-65
2022/04/11 12:49:25;;;;;;;1.27;0.93;;;23.80;31.10;;;;;;5055321;28;20423;-66
2022/04/11 12:52:04;;;;;;;1.40;0.90;;;23.90;31.10;;;;;;5053654;28;20389;-65
2022/04/11 12:54:43;;;;;;;1.40;0.95;;;23.90;31.10;;;;;;5051272;28;20416;-66
2022/04/11 12:57:31;;;;;;;1.40;0.90;;;23.90;31.00;;;;;;5052911;28;20531;-65
2022/04/11 13:00:10;;;;;;;1.30;0.90;;;23.90;31.00;;;;;;5052854;28;20393;-66
2022/04/11 13:02:36;;;;;;;1.45;0.90;;;23.90;31.00;;;;;;5053630;28;20476;-65
2022/04/11 13:05:08;;;;;;;1.60;0.90;;;23.90;31.10;;;;;;5036025;28;20480;-66
2022/04/11 13:07:34;;;;;;;1.00;0.80;;;23.90;31.10;;;;;;5053835;28;21000;-66
2022/04/11 13:10:00;;;;;;;1.35;0.90;;;23.80;31.00;;;;;;5052939;28;20397;-65
2022/04/11 13:12:27;;;;;;;1.20;1.00;;;23.90;31.10;;;;;;5053115;28;20892;-65
2022/04/11 13:14:55;;;;;;;3.03;1.02;;;23.90;31.40;;;;;;5052919;28;20385;-66
2022/04/11 13:20:06;;;;;;;2.60;1.13;;;23.80;31.90;;;;;;5048321;28;20377;-66
2022/04/11 13:22:32;;;;;;;4.27;1.40;;;23.80;31.70;;;;;;5053065;28;20396;-66
2022/04/11 13:24:59;;;;;;;2.63;1.23;;;23.80;31.10;;;;;;5050037;28;20394;-66
2022/04/11 13:27:25;;;;;;;2.92;1.10;;;23.80;31.70;;;;;;5036293;28;20469;-66
2022/04/11 13:29:52;;;;;;;3.00;1.30;;;23.80;31.70;;;;;;5052249;28;20792;-66